createdAt,value
2018-12-12T00:00:17.533Z,0.00
2018-12-12T00:01:17.565Z,0.00
2018-12-12T00:02:17.518Z,0.00
2018-12-12T00:03:17.514Z,0.00
2018-12-12T00:04:17.508Z,0.00
2018-12-12T00:05:17.507Z,0.00
2018-12-12T00:06:17.525Z,0.00
2018-12-12T00:07:17.492Z,0.00
2018-12-12T00:08:17.488Z,0.00
2018-12-12T00:09:17.488Z,0.00
2018-12-12T00:10:17.476Z,0.00
2018-12-12T00:11:17.496Z,0.00
2018-12-12T00:12:17.464Z,0.00
2018-12-12T00:13:17.457Z,0.00
2018-12-12T00:14:17.452Z,0.00
2018-12-12T00:15:17.445Z,0.00
2018-12-12T00:16:17.468Z,0.00
2018-12-12T00:17:17.438Z,0.00
2018-12-12T00:18:17.457Z,0.00
2018-12-12T00:19:17.420Z,0.00
2018-12-12T00:20:17.425Z,0.00
2018-12-12T00:21:17.444Z,0.00
2018-12-12T00:22:17.420Z,0.00
2018-12-12T00:23:17.400Z,0.00
2018-12-12T00:24:17.397Z,0.00
2018-12-12T00:25:17.392Z,0.00
2018-12-12T00:26:17.409Z,0.00
2018-12-12T00:27:17.379Z,0.00
2018-12-12T00:28:17.379Z,0.00
2018-12-12T00:29:17.367Z,0.00
2018-12-12T00:30:17.361Z,0.00
2018-12-12T00:31:17.397Z,0.00
2018-12-12T00:32:17.422Z,0.00
2018-12-12T00:33:17.345Z,0.00
2018-12-12T00:34:17.339Z,0.00
2018-12-12T00:35:17.329Z,0.00
2018-12-12T00:36:17.355Z,0.00
2018-12-12T00:37:17.319Z,0.00
2018-12-12T00:38:17.320Z,0.00
2018-12-12T00:39:17.316Z,0.00
2018-12-12T00:40:17.315Z,0.00
2018-12-12T00:41:17.342Z,0.00
2018-12-12T00:42:17.876Z,0.00
2018-12-12T00:43:17.286Z,0.00
2018-12-12T00:44:17.285Z,0.00
2018-12-12T00:45:17.275Z,0.00
2018-12-12T00:46:17.303Z,0.00
2018-12-12T00:47:17.275Z,0.00
2018-12-12T00:48:17.256Z,0.00
2018-12-12T00:49:17.289Z,0.00
2018-12-12T00:50:17.247Z,0.00
2018-12-12T00:51:17.278Z,0.00
2018-12-12T00:52:17.231Z,0.00
2018-12-12T00:53:17.227Z,0.00
2018-12-12T00:54:17.223Z,0.00
2018-12-12T00:55:17.227Z,0.00
2018-12-12T00:56:17.242Z,0.00
2018-12-12T00:57:17.205Z,0.00
2018-12-12T00:58:17.198Z,0.00
2018-12-12T00:59:17.194Z,0.00
2018-12-12T01:00:17.206Z,0.00
2018-12-12T01:01:17.217Z,0.00
2018-12-12T01:02:17.178Z,0.00
2018-12-12T01:03:17.177Z,0.00
2018-12-12T01:04:17.205Z,0.00
2018-12-12T01:05:17.161Z,0.00
2018-12-12T01:06:17.194Z,0.00
2018-12-12T01:07:17.152Z,0.00
2018-12-12T01:08:17.145Z,0.00
2018-12-12T01:09:17.137Z,0.00
2018-12-12T01:10:17.140Z,0.00
2018-12-12T01:11:17.156Z,0.00
2018-12-12T01:12:17.118Z,0.00
2018-12-12T01:13:17.118Z,0.00
2018-12-12T01:14:17.115Z,0.00
2018-12-12T01:15:17.101Z,0.00
2018-12-12T01:16:17.125Z,0.00
2018-12-12T01:17:17.094Z,0.00
2018-12-12T01:18:17.087Z,0.00
2018-12-12T01:19:17.081Z,0.00
2018-12-12T01:20:17.073Z,0.00
2018-12-12T01:21:17.098Z,0.00
2018-12-12T01:22:17.069Z,0.00
2018-12-12T01:23:17.057Z,0.00
2018-12-12T01:24:17.053Z,0.00
2018-12-12T01:25:17.051Z,0.00
2018-12-12T01:26:17.085Z,0.00
2018-12-12T01:27:17.033Z,0.00
2018-12-12T01:28:17.029Z,0.00
2018-12-12T01:29:17.031Z,0.00
2018-12-12T01:30:17.016Z,0.00
2018-12-12T01:31:17.041Z,0.00
2018-12-12T01:32:17.005Z,0.00
2018-12-12T01:33:17.002Z,0.00
2018-12-12T01:34:16.995Z,0.00
2018-12-12T01:35:16.990Z,0.00
2018-12-12T01:36:17.012Z,0.00
2018-12-12T01:37:16.976Z,0.00
2018-12-12T01:38:16.986Z,0.00
2018-12-12T01:39:16.968Z,0.00
2018-12-12T01:40:16.964Z,0.00
2018-12-12T01:41:17.003Z,0.00
2018-12-12T01:42:16.948Z,0.00
2018-12-12T01:43:16.943Z,0.00
2018-12-12T01:44:16.942Z,0.00
2018-12-12T01:45:16.934Z,0.00
2018-12-12T01:46:16.952Z,0.00
2018-12-12T01:47:16.916Z,0.00
2018-12-12T01:48:16.908Z,0.00
2018-12-12T01:49:16.908Z,0.00
2018-12-12T01:50:16.900Z,0.00
2018-12-12T01:51:16.925Z,0.00
2018-12-12T01:52:16.885Z,0.00
2018-12-12T01:53:16.892Z,0.00
2018-12-12T01:54:16.875Z,0.00
2018-12-12T01:55:16.874Z,0.00
2018-12-12T01:56:16.892Z,0.00
2018-12-12T01:57:16.862Z,0.00
2018-12-12T01:58:16.851Z,0.00
2018-12-12T01:59:16.848Z,0.00
2018-12-12T02:00:16.840Z,0.00
2018-12-12T02:01:16.881Z,0.00
2018-12-12T02:02:16.828Z,0.00
2018-12-12T02:03:16.824Z,0.00
2018-12-12T02:04:16.820Z,0.00
2018-12-12T02:05:16.812Z,0.00
2018-12-12T02:06:16.835Z,0.00
2018-12-12T02:07:16.799Z,0.00
2018-12-12T02:08:16.795Z,0.00
2018-12-12T02:09:16.795Z,0.00
2018-12-12T02:10:16.779Z,0.00
2018-12-12T02:11:16.800Z,0.00
2018-12-12T02:12:16.771Z,0.00
2018-12-12T02:13:16.834Z,0.00
2018-12-12T02:14:16.758Z,0.00
2018-12-12T02:15:16.747Z,0.00
2018-12-12T02:16:16.779Z,0.00
2018-12-12T02:17:16.735Z,0.00
2018-12-12T02:18:16.738Z,0.00
2018-12-12T02:19:16.731Z,0.00
2018-12-12T02:20:16.731Z,0.00
2018-12-12T02:21:16.742Z,0.00
2018-12-12T02:22:16.715Z,0.00
2018-12-12T02:23:16.703Z,0.00
2018-12-12T02:24:16.699Z,0.00
2018-12-12T02:25:16.683Z,0.00
2018-12-12T02:26:17.391Z,0.00
2018-12-12T02:27:16.682Z,0.00
2018-12-12T02:28:16.674Z,0.00
2018-12-12T02:29:16.669Z,0.00
2018-12-12T02:30:16.662Z,0.00
2018-12-12T02:31:16.682Z,0.00
2018-12-12T02:32:16.651Z,0.00
2018-12-12T02:33:16.642Z,0.00
2018-12-12T02:34:16.639Z,0.00
2018-12-12T02:35:16.635Z,0.00
2018-12-12T02:36:16.650Z,0.00
2018-12-12T02:37:16.622Z,0.00
2018-12-12T02:38:16.614Z,0.00
2018-12-12T02:39:16.606Z,0.00
2018-12-12T02:40:16.601Z,0.00
2018-12-12T02:41:16.633Z,0.00
2018-12-12T02:42:16.587Z,0.00
2018-12-12T02:43:16.599Z,0.00
2018-12-12T02:44:16.585Z,0.00
2018-12-12T02:45:16.579Z,0.00
2018-12-12T02:46:16.585Z,0.00
2018-12-12T02:47:16.557Z,0.00
2018-12-12T02:48:16.558Z,0.00
2018-12-12T02:49:16.545Z,0.00
2018-12-12T02:50:16.548Z,0.00
2018-12-12T02:51:16.565Z,0.00
2018-12-12T02:52:16.522Z,0.00
2018-12-12T02:53:16.522Z,0.00
2018-12-12T02:54:16.508Z,0.00
2018-12-12T02:55:16.509Z,0.00
2018-12-12T02:56:16.529Z,0.00
2018-12-12T02:57:16.504Z,0.00
2018-12-12T02:58:16.490Z,0.00
2018-12-12T02:59:16.496Z,0.00
2018-12-12T03:00:16.478Z,0.00
2018-12-12T03:01:16.474Z,0.00
2018-12-12T03:02:16.492Z,0.00
2018-12-12T03:03:16.457Z,0.00
2018-12-12T03:04:16.453Z,0.00
2018-12-12T03:05:16.450Z,0.00
2018-12-12T03:06:16.474Z,0.00
2018-12-12T03:07:16.435Z,0.00
2018-12-12T03:08:16.460Z,0.00
2018-12-12T03:09:16.438Z,0.00
2018-12-12T03:10:16.412Z,0.00
2018-12-12T03:11:16.411Z,0.00
2018-12-12T03:12:16.433Z,0.00
2018-12-12T03:13:16.395Z,0.00
2018-12-12T03:14:16.383Z,0.00
2018-12-12T03:15:16.386Z,0.00
2018-12-12T03:16:16.375Z,0.00
2018-12-12T03:17:16.400Z,0.00
2018-12-12T03:18:16.378Z,0.00
2018-12-12T03:19:16.359Z,0.00
2018-12-12T03:20:16.347Z,0.00
2018-12-12T03:21:16.350Z,0.00
2018-12-12T03:22:16.376Z,0.00
2018-12-12T03:23:16.336Z,0.00
2018-12-12T03:24:16.327Z,0.00
2018-12-12T03:25:16.318Z,0.00
2018-12-12T03:26:16.534Z,0.00
2018-12-12T03:27:16.335Z,0.00
2018-12-12T03:28:16.312Z,0.00
2018-12-12T03:29:16.300Z,0.00
2018-12-12T03:30:16.292Z,0.00
2018-12-12T03:31:16.312Z,0.00
2018-12-12T03:32:16.284Z,0.00
2018-12-12T03:33:16.275Z,0.00
2018-12-12T03:34:16.263Z,0.00
2018-12-12T03:35:16.270Z,0.00
2018-12-12T03:36:16.288Z,0.00
2018-12-12T03:37:16.247Z,0.00
2018-12-12T03:38:16.238Z,0.00
2018-12-12T03:39:16.230Z,0.00
2018-12-12T03:40:16.235Z,0.00
2018-12-12T03:41:16.252Z,0.00
2018-12-12T03:42:16.218Z,0.00
2018-12-12T03:43:16.206Z,0.00
2018-12-12T03:44:16.203Z,0.00
2018-12-12T03:45:16.200Z,0.00
2018-12-12T03:46:16.218Z,0.00
2018-12-12T03:47:16.186Z,0.00
2018-12-12T03:48:16.178Z,0.00
2018-12-12T03:49:16.172Z,0.00
2018-12-12T03:50:16.165Z,0.00
2018-12-12T03:51:16.207Z,0.00
2018-12-12T03:52:16.185Z,0.00
2018-12-12T03:53:16.149Z,0.00
2018-12-12T03:54:16.144Z,0.00
2018-12-12T03:55:16.145Z,0.00
2018-12-12T03:56:16.121Z,0.00
2018-12-12T03:57:16.152Z,0.00
2018-12-12T03:58:16.108Z,0.00
2018-12-12T03:59:16.110Z,0.00
2018-12-12T04:00:16.105Z,0.00
2018-12-12T04:01:16.127Z,0.00
2018-12-12T04:02:16.088Z,0.00
2018-12-12T04:03:16.085Z,0.00
2018-12-12T04:04:16.082Z,0.00
2018-12-12T04:05:16.069Z,0.00
2018-12-12T04:06:16.145Z,0.00
2018-12-12T04:07:16.062Z,0.00
2018-12-12T04:08:16.055Z,0.00
2018-12-12T04:09:16.076Z,0.00
2018-12-12T04:10:16.040Z,0.00
2018-12-12T04:11:16.037Z,0.00
2018-12-12T04:12:16.056Z,0.00
2018-12-12T04:13:16.025Z,0.00
2018-12-12T04:14:16.017Z,0.00
2018-12-12T04:15:16.010Z,0.00
2018-12-12T04:16:16.004Z,0.00
2018-12-12T04:17:16.028Z,0.00
2018-12-12T04:18:15.998Z,0.00
2018-12-12T04:19:15.984Z,0.00
2018-12-12T04:20:15.980Z,0.00
2018-12-12T04:21:15.974Z,0.00
2018-12-12T04:22:16.000Z,0.00
2018-12-12T04:23:15.966Z,0.00
2018-12-12T04:24:15.957Z,0.00
2018-12-12T04:25:15.948Z,0.00
2018-12-12T04:26:15.949Z,0.00
2018-12-12T04:27:15.964Z,0.00
2018-12-12T04:28:15.935Z,0.00
2018-12-12T04:29:15.931Z,0.00
2018-12-12T04:30:15.919Z,0.00
2018-12-12T04:31:15.911Z,0.00
2018-12-12T04:32:15.926Z,0.00
2018-12-12T04:33:15.901Z,0.00
2018-12-12T04:34:15.890Z,0.00
2018-12-12T04:35:15.889Z,0.00
2018-12-12T04:36:15.878Z,0.00
2018-12-12T04:37:15.904Z,0.00
2018-12-12T04:38:15.876Z,0.00
2018-12-12T04:39:15.867Z,0.00
2018-12-12T04:40:15.852Z,0.00
2018-12-12T04:41:15.856Z,0.00
2018-12-12T04:42:15.889Z,0.00
2018-12-12T04:43:15.843Z,0.00
2018-12-12T04:44:15.831Z,0.00
2018-12-12T04:45:15.829Z,0.00
2018-12-12T04:46:15.820Z,0.00
2018-12-12T04:47:15.840Z,0.00
2018-12-12T04:48:15.806Z,0.00
2018-12-12T04:49:15.802Z,0.00
2018-12-12T04:50:15.786Z,0.00
2018-12-12T04:51:15.790Z,0.00
2018-12-12T04:52:15.809Z,0.00
2018-12-12T04:53:15.777Z,0.00
2018-12-12T04:54:15.771Z,0.00
2018-12-12T04:55:15.764Z,0.00
2018-12-12T04:56:15.767Z,0.00
2018-12-12T04:57:15.778Z,0.00
2018-12-12T04:58:15.746Z,0.00
2018-12-12T04:59:15.734Z,0.00
2018-12-12T05:00:15.742Z,0.00
2018-12-12T05:01:15.726Z,0.00
2018-12-12T05:02:15.750Z,0.00
2018-12-12T05:03:15.714Z,0.00
2018-12-12T05:04:15.706Z,0.00
2018-12-12T05:05:15.702Z,0.00
2018-12-12T05:06:15.694Z,0.00
2018-12-12T05:07:15.713Z,0.00
2018-12-12T05:08:15.684Z,0.00
2018-12-12T05:09:15.686Z,0.00
2018-12-12T05:10:15.669Z,0.00
2018-12-12T05:11:15.669Z,0.00
2018-12-12T05:12:15.691Z,0.00
2018-12-12T05:13:15.652Z,0.00
2018-12-12T05:14:15.646Z,0.00
2018-12-12T05:15:15.640Z,0.00
2018-12-12T05:16:15.633Z,0.00
2018-12-12T05:17:15.656Z,0.00
2018-12-12T05:18:15.631Z,0.00
2018-12-12T05:19:15.616Z,0.00
2018-12-12T05:20:15.611Z,0.00
2018-12-12T05:21:15.601Z,0.00
2018-12-12T05:22:15.628Z,0.00
2018-12-12T05:23:15.589Z,0.00
2018-12-12T05:24:15.584Z,0.00
2018-12-12T05:25:15.573Z,0.00
2018-12-12T05:26:15.740Z,0.00
2018-12-12T05:27:15.593Z,0.00
2018-12-12T05:28:15.563Z,0.00
2018-12-12T05:29:15.550Z,0.00
2018-12-12T05:30:15.555Z,0.00
2018-12-12T05:31:15.540Z,0.00
2018-12-12T05:32:15.562Z,0.00
2018-12-12T05:33:15.531Z,0.00
2018-12-12T05:34:15.517Z,0.00
2018-12-12T05:35:15.517Z,0.00
2018-12-12T05:36:15.514Z,0.00
2018-12-12T05:37:15.532Z,0.00
2018-12-12T05:38:15.505Z,0.00
2018-12-12T05:39:15.492Z,0.00
2018-12-12T05:40:15.485Z,0.00
2018-12-12T05:41:15.480Z,0.00
2018-12-12T05:42:15.500Z,0.00
2018-12-12T05:43:15.463Z,0.00
2018-12-12T05:44:15.461Z,0.00
2018-12-12T05:45:15.456Z,0.00
2018-12-12T05:46:15.486Z,0.00
2018-12-12T05:47:15.439Z,0.00
2018-12-12T05:48:15.464Z,0.00
2018-12-12T05:49:15.445Z,0.00
2018-12-12T05:50:15.422Z,0.00
2018-12-12T05:51:15.414Z,0.00
2018-12-12T05:52:16.084Z,0.00
2018-12-12T05:53:15.404Z,0.00
2018-12-12T05:54:15.399Z,0.00
2018-12-12T05:55:15.391Z,0.00
2018-12-12T05:56:15.382Z,0.00
2018-12-12T05:57:15.409Z,0.00
2018-12-12T05:58:15.375Z,0.00
2018-12-12T05:59:15.371Z,0.00
2018-12-12T06:00:15.359Z,0.00
2018-12-12T06:01:15.356Z,0.00
2018-12-12T06:02:15.370Z,0.00
2018-12-12T06:03:15.343Z,0.00
2018-12-12T06:04:15.339Z,0.00
2018-12-12T06:05:15.331Z,0.00
2018-12-12T06:06:15.357Z,0.00
2018-12-12T06:07:15.321Z,0.00
2018-12-12T06:08:15.315Z,0.00
2018-12-12T06:09:15.306Z,0.00
2018-12-12T06:10:15.296Z,0.00
2018-12-12T06:11:15.323Z,0.00
2018-12-12T06:12:15.290Z,0.00
2018-12-12T06:13:15.285Z,0.00
2018-12-12T06:14:15.277Z,0.00
2018-12-12T06:15:15.277Z,0.00
2018-12-12T06:16:15.290Z,0.00
2018-12-12T06:17:15.260Z,0.00
2018-12-12T06:18:15.249Z,0.00
2018-12-12T06:19:15.247Z,0.00
2018-12-12T06:20:15.238Z,0.00
2018-12-12T06:21:15.263Z,0.00
2018-12-12T06:22:15.230Z,0.00
2018-12-12T06:23:15.222Z,0.00
2018-12-12T06:24:15.217Z,0.00
2018-12-12T06:25:15.211Z,0.00
2018-12-12T06:26:15.234Z,4.00
2018-12-12T06:27:15.196Z,4.00
2018-12-12T06:28:15.193Z,0.00
2018-12-12T06:29:15.186Z,0.00
2018-12-12T06:30:15.179Z,4.00
2018-12-12T06:31:15.201Z,4.00
2018-12-12T06:32:15.169Z,4.00
2018-12-12T06:33:15.166Z,4.00
2018-12-12T06:34:15.153Z,4.00
2018-12-12T06:35:18.107Z,8.00
2018-12-12T06:36:15.210Z,4.00
2018-12-12T06:37:15.138Z,8.00
2018-12-12T06:38:15.129Z,8.00
2018-12-12T06:39:15.122Z,8.00
2018-12-12T06:40:16.704Z,8.00
2018-12-12T06:41:15.141Z,12.00
2018-12-12T06:42:15.128Z,12.00
2018-12-12T06:43:15.097Z,12.00
2018-12-12T06:44:15.102Z,16.00
2018-12-12T06:45:15.089Z,24.00
2018-12-12T06:46:15.111Z,28.00
2018-12-12T06:47:15.077Z,36.00
2018-12-12T06:48:15.073Z,40.00
2018-12-12T06:49:15.065Z,48.00
2018-12-12T06:50:15.060Z,52.00
2018-12-12T06:51:15.080Z,56.00
2018-12-12T06:52:15.050Z,64.00
2018-12-12T06:53:15.033Z,72.00
2018-12-12T06:54:15.037Z,80.00
2018-12-12T06:55:15.030Z,84.00
2018-12-12T06:56:15.052Z,88.00
2018-12-12T06:57:15.016Z,92.00
2018-12-12T06:58:15.007Z,92.00
2018-12-12T06:59:15.007Z,96.00
2018-12-12T07:00:15.004Z,96.00
2018-12-12T07:01:15.020Z,100.00
2018-12-12T07:02:14.985Z,112.00
2018-12-12T07:03:14.995Z,120.00
2018-12-12T07:04:14.974Z,132.00
2018-12-12T07:05:14.970Z,156.00
2018-12-12T07:06:15.007Z,172.00
2018-12-12T07:07:14.956Z,188.00
2018-12-12T07:08:15.013Z,208.00
2018-12-12T07:09:15.582Z,244.00
2018-12-12T07:10:14.944Z,288.00
2018-12-12T07:11:15.095Z,312.00
2018-12-12T07:12:14.946Z,336.00
2018-12-12T07:13:14.937Z,364.00
2018-12-12T07:14:25.754Z,380.00
2018-12-12T07:15:14.927Z,388.00
2018-12-12T07:16:14.918Z,416.00
2018-12-12T07:17:14.891Z,444.00
2018-12-12T07:18:14.884Z,448.00
2018-12-12T07:19:14.880Z,456.00
2018-12-12T07:20:14.871Z,492.00
2018-12-12T07:21:14.897Z,548.00
2018-12-12T07:22:14.859Z,604.00
2018-12-12T07:23:14.845Z,680.00
2018-12-12T07:24:14.839Z,744.00
2018-12-12T07:25:14.832Z,776.00
2018-12-12T07:26:14.855Z,836.00
2018-12-12T07:27:14.815Z,880.00
2018-12-12T07:28:14.814Z,880.00
2018-12-12T07:29:14.823Z,864.00
2018-12-12T07:30:14.812Z,820.00
2018-12-12T07:31:14.836Z,808.00
2018-12-12T07:32:14.798Z,884.00
2018-12-12T07:33:14.795Z,904.00
2018-12-12T07:34:14.778Z,912.00
2018-12-12T07:35:14.841Z,912.00
2018-12-12T07:36:14.802Z,932.00
2018-12-12T07:37:14.771Z,968.00
2018-12-12T07:38:14.760Z,1052.00
2018-12-12T07:39:17.926Z,1192.00
2018-12-12T07:40:14.743Z,1252.00
2018-12-12T07:41:14.771Z,1144.00
2018-12-12T07:42:14.735Z,1084.00
2018-12-12T07:43:14.731Z,1136.00
2018-12-12T07:44:14.749Z,1176.00
2018-12-12T07:45:14.718Z,1204.00
2018-12-12T07:46:14.712Z,1232.00
2018-12-12T07:47:14.731Z,1288.00
2018-12-12T07:48:14.696Z,1272.00
2018-12-12T07:49:14.689Z,1260.00
2018-12-12T07:50:14.678Z,1136.00
2018-12-12T07:51:14.676Z,1092.00
2018-12-12T07:52:14.697Z,1080.00
2018-12-12T07:53:14.668Z,1032.00
2018-12-12T07:54:14.657Z,1008.00
2018-12-12T07:55:14.657Z,1000.00
2018-12-12T07:56:14.645Z,1120.00
2018-12-12T07:57:14.668Z,1232.00
2018-12-12T07:58:14.633Z,1296.00
2018-12-12T07:59:14.638Z,1276.00
2018-12-12T08:00:14.620Z,1252.00
2018-12-12T08:01:14.616Z,1352.00
2018-12-12T08:02:14.670Z,1316.00
2018-12-12T08:03:14.602Z,1436.00
2018-12-12T08:04:14.593Z,1600.00
2018-12-12T08:05:14.590Z,1568.00
2018-12-12T08:06:14.582Z,1532.00
2018-12-12T08:07:14.606Z,1476.00
2018-12-12T08:08:14.569Z,1400.00
2018-12-12T08:09:14.564Z,1476.00
2018-12-12T08:10:14.557Z,1464.00
2018-12-12T08:11:14.556Z,1484.00
2018-12-12T08:12:14.575Z,1448.00
2018-12-12T08:13:14.539Z,1392.00
2018-12-12T08:14:14.533Z,1328.00
2018-12-12T08:15:14.525Z,1308.00
2018-12-12T08:16:14.592Z,1416.00
2018-12-12T08:17:14.540Z,1488.00
2018-12-12T08:18:14.504Z,1604.00
2018-12-12T08:19:14.503Z,1656.00
2018-12-12T08:20:14.493Z,1656.00
2018-12-12T08:21:14.489Z,1872.00
2018-12-12T08:22:14.509Z,1844.00
2018-12-12T08:23:14.473Z,1916.00
2018-12-12T08:24:14.468Z,2040.00
2018-12-12T08:25:14.462Z,1868.00
2018-12-12T08:26:14.457Z,1792.00
2018-12-12T08:27:14.477Z,1700.00
2018-12-12T08:28:14.447Z,1768.00
2018-12-12T08:29:14.438Z,1864.00
2018-12-12T08:30:14.431Z,1996.00
2018-12-12T08:31:14.428Z,2432.00
2018-12-12T08:32:14.449Z,2476.00
2018-12-12T08:33:15.049Z,2232.00
2018-12-12T08:34:14.403Z,2028.00
2018-12-12T08:35:14.412Z,2104.00
2018-12-12T08:36:14.393Z,2244.00
2018-12-12T08:37:14.422Z,2172.00
2018-12-12T08:38:14.417Z,1992.00
2018-12-12T08:39:14.373Z,1944.00
2018-12-12T08:40:14.372Z,2028.00
2018-12-12T08:41:14.371Z,2172.00
2018-12-12T08:42:14.387Z,2232.00
2018-12-12T08:43:14.356Z,2264.00
2018-12-12T08:44:14.343Z,2120.00
2018-12-12T08:45:14.335Z,2304.00
2018-12-12T08:46:14.328Z,2384.00
2018-12-12T08:47:14.348Z,2404.00
2018-12-12T08:48:14.314Z,2492.00
2018-12-12T08:49:14.311Z,2444.00
2018-12-12T08:50:14.307Z,2456.00
2018-12-12T08:51:14.295Z,2472.00
2018-12-12T08:52:14.320Z,2552.00
2018-12-12T08:53:14.283Z,2396.00
2018-12-12T08:54:14.274Z,2352.00
2018-12-12T08:55:17.586Z,2352.00
2018-12-12T08:56:14.263Z,2384.00
2018-12-12T08:57:14.259Z,2404.00
2018-12-12T08:58:14.276Z,2468.00
2018-12-12T08:59:14.244Z,2416.00
2018-12-12T09:00:14.260Z,2472.00
2018-12-12T09:01:14.231Z,2688.00
2018-12-12T09:02:14.255Z,2864.00
2018-12-12T09:03:17.604Z,3020.00
2018-12-12T09:04:14.215Z,2984.00
2018-12-12T09:05:14.206Z,3196.00
2018-12-12T09:06:14.202Z,3128.00
2018-12-12T09:07:14.220Z,3164.00
2018-12-12T09:08:14.187Z,3440.00
2018-12-12T09:09:14.179Z,3512.00
2018-12-12T09:10:14.176Z,3540.00
2018-12-12T09:11:14.167Z,3660.00
2018-12-12T09:12:14.217Z,3704.00
2018-12-12T09:13:15.415Z,3892.00
2018-12-12T09:14:14.168Z,3872.00
2018-12-12T09:15:14.171Z,3960.00
2018-12-12T09:16:14.139Z,3840.00
2018-12-12T09:17:14.135Z,4120.00
2018-12-12T09:18:14.157Z,4480.00
2018-12-12T09:19:14.117Z,4356.00
2018-12-12T09:20:14.117Z,4440.00
2018-12-12T09:21:14.139Z,4588.00
2018-12-12T09:22:14.103Z,4920.00
2018-12-12T09:23:14.128Z,5008.00
2018-12-12T09:24:14.097Z,4904.00
2018-12-12T09:25:14.082Z,5064.00
2018-12-12T09:26:14.076Z,4736.00
2018-12-12T09:27:14.075Z,4616.00
2018-12-12T09:28:14.098Z,4468.00
2018-12-12T09:29:14.057Z,4000.00
2018-12-12T09:30:14.068Z,3856.00
2018-12-12T09:31:14.065Z,3804.00
2018-12-12T09:32:14.047Z,3668.00
2018-12-12T09:33:14.100Z,3424.00
2018-12-12T09:34:14.029Z,3256.00
2018-12-12T09:35:14.034Z,3476.00
2018-12-12T09:36:14.028Z,3792.00
2018-12-12T09:37:14.037Z,4088.00
2018-12-12T09:38:14.040Z,4176.00
2018-12-12T09:39:14.007Z,4372.00
2018-12-12T09:40:14.029Z,4228.00
2018-12-12T09:41:14.012Z,4180.00
2018-12-12T09:42:13.998Z,4088.00
2018-12-12T09:43:14.004Z,4028.00
2018-12-12T09:44:14.020Z,3844.00
2018-12-12T09:45:13.964Z,3632.00
2018-12-12T09:46:13.995Z,3752.00
2018-12-12T09:47:13.954Z,3944.00
2018-12-12T09:48:19.308Z,4620.00
2018-12-12T09:49:14.008Z,4832.00
2018-12-12T09:50:13.926Z,4612.00
2018-12-12T09:51:13.919Z,3996.00
2018-12-12T09:52:13.920Z,4232.00
2018-12-12T09:53:13.926Z,4116.00
2018-12-12T09:54:13.941Z,4356.00
2018-12-12T09:55:13.914Z,4760.00
2018-12-12T09:56:13.905Z,5268.00
2018-12-12T09:57:13.901Z,5412.00
2018-12-12T09:58:13.876Z,5512.00
2018-12-12T09:59:13.907Z,5748.00
2018-12-12T10:00:13.869Z,5848.00
2018-12-12T10:01:13.863Z,5904.00
2018-12-12T10:02:13.860Z,5636.00
2018-12-12T10:03:13.856Z,5760.00
2018-12-12T10:04:13.875Z,6036.00
2018-12-12T10:05:13.841Z,7184.00
2018-12-12T10:06:13.837Z,7572.00
2018-12-12T10:07:13.830Z,8124.00
2018-12-12T10:08:13.827Z,7056.00
2018-12-12T10:09:13.843Z,5284.00
2018-12-12T10:10:13.812Z,4052.00
2018-12-12T10:11:13.803Z,3744.00
2018-12-12T10:12:13.791Z,4124.00
2018-12-12T10:13:13.792Z,4368.00
2018-12-12T10:14:13.831Z,4360.00
2018-12-12T10:15:13.780Z,4044.00
2018-12-12T10:16:13.776Z,4032.00
2018-12-12T10:17:13.767Z,4480.00
2018-12-12T10:18:13.762Z,4464.00
2018-12-12T10:19:13.786Z,4208.00
2018-12-12T10:20:13.760Z,4396.00
2018-12-12T10:21:13.749Z,4644.00
2018-12-12T10:22:13.749Z,4920.00
2018-12-12T10:23:16.164Z,5236.00
2018-12-12T10:24:13.758Z,4848.00
2018-12-12T10:25:13.796Z,4328.00
2018-12-12T10:26:13.746Z,3980.00
2018-12-12T10:27:13.770Z,4900.00
2018-12-12T10:28:13.707Z,5092.00
2018-12-12T10:29:13.731Z,5216.00
2018-12-12T10:30:13.704Z,6328.00
2018-12-12T10:31:13.692Z,6032.00
2018-12-12T10:32:13.682Z,5788.00
2018-12-12T10:33:13.682Z,6316.00
2018-12-12T10:34:13.699Z,6736.00
2018-12-12T10:35:14.561Z,7260.00
2018-12-12T10:36:13.657Z,6452.00
2018-12-12T10:37:13.661Z,6380.00
2018-12-12T10:38:13.650Z,6132.00
2018-12-12T10:39:13.673Z,6248.00
2018-12-12T10:40:13.691Z,5960.00
2018-12-12T10:41:13.637Z,5628.00
2018-12-12T10:42:13.629Z,5288.00
2018-12-12T10:43:13.681Z,5192.00
2018-12-12T10:44:13.649Z,4640.00
2018-12-12T10:45:13.613Z,4096.00
2018-12-12T10:46:13.606Z,3664.00
2018-12-12T10:47:13.598Z,3316.00
2018-12-12T10:48:13.599Z,3324.00
2018-12-12T10:49:13.617Z,3412.00
2018-12-12T10:50:13.585Z,3684.00
2018-12-12T10:51:13.605Z,3332.00
2018-12-12T10:52:13.577Z,3644.00
2018-12-12T10:53:13.567Z,4628.00
2018-12-12T10:54:13.563Z,4928.00
2018-12-12T10:55:13.596Z,5544.00
2018-12-12T10:56:13.553Z,6428.00
2018-12-12T10:57:13.545Z,7436.00
2018-12-12T10:58:13.544Z,7996.00
2018-12-12T10:59:13.530Z,8220.00
2018-12-12T11:00:13.564Z,8472.00
2018-12-12T11:01:14.111Z,9908.00
2018-12-12T11:02:13.517Z,10932.00
2018-12-12T11:03:13.519Z,12664.00
2018-12-12T11:04:13.509Z,11876.00
2018-12-12T11:05:13.533Z,12980.00
2018-12-12T11:06:13.497Z,13680.00
2018-12-12T11:07:13.493Z,13460.00
2018-12-12T11:08:13.485Z,12808.00
2018-12-12T11:09:13.482Z,11660.00
2018-12-12T11:10:13.505Z,9504.00
2018-12-12T11:11:13.470Z,8520.00
2018-12-12T11:12:13.465Z,8708.00
2018-12-12T11:13:13.461Z,9352.00
2018-12-12T11:14:13.446Z,10128.00
2018-12-12T11:15:13.476Z,11284.00
2018-12-12T11:16:13.445Z,12164.00
2018-12-12T11:17:13.443Z,13744.00
2018-12-12T11:18:13.436Z,15600.00
2018-12-12T11:19:13.428Z,17472.00
2018-12-12T11:20:13.463Z,16944.00
2018-12-12T11:21:13.420Z,15976.00
2018-12-12T11:22:13.417Z,16340.00
2018-12-12T11:23:13.408Z,15272.00
2018-12-12T11:24:13.400Z,14364.00
2018-12-12T11:25:13.429Z,14208.00
2018-12-12T11:26:13.397Z,13180.00
2018-12-12T11:27:13.393Z,13272.00
2018-12-12T11:28:13.389Z,13048.00
2018-12-12T11:29:13.384Z,13504.00
2018-12-12T11:30:13.404Z,14768.00
2018-12-12T11:31:13.370Z,16016.00
2018-12-12T11:32:13.377Z,15636.00
2018-12-12T11:33:13.363Z,16216.00
2018-12-12T11:34:13.361Z,16260.00
2018-12-12T11:35:13.443Z,13408.00
2018-12-12T11:36:13.357Z,11404.00
2018-12-12T11:37:13.347Z,10520.00
2018-12-12T11:38:13.336Z,11116.00
2018-12-12T11:39:13.340Z,11484.00
2018-12-12T11:40:13.361Z,11404.00
2018-12-12T11:41:13.329Z,11340.00
2018-12-12T11:42:13.321Z,11372.00
2018-12-12T11:43:13.316Z,11560.00
2018-12-12T11:44:13.312Z,11940.00
2018-12-12T11:45:13.335Z,12928.00
2018-12-12T11:46:13.305Z,14004.00
2018-12-12T11:47:13.298Z,14892.00
2018-12-12T11:48:13.296Z,15396.00
2018-12-12T11:49:13.292Z,15092.00
2018-12-12T11:50:13.315Z,14048.00
2018-12-12T11:51:13.278Z,13256.00
2018-12-12T11:52:13.271Z,12436.00
2018-12-12T11:53:13.273Z,13176.00
2018-12-12T11:54:13.259Z,13944.00
2018-12-12T11:55:13.292Z,13428.00
2018-12-12T11:56:13.259Z,11024.00
2018-12-12T11:57:13.254Z,7900.00
2018-12-12T11:58:13.246Z,6568.00
2018-12-12T11:59:13.242Z,5856.00
2018-12-12T12:00:13.266Z,5112.00
2018-12-12T12:01:13.234Z,4028.00
2018-12-12T12:02:13.259Z,3496.00
2018-12-12T12:03:13.227Z,3180.00
2018-12-12T12:04:13.221Z,2952.00
2018-12-12T12:05:13.220Z,2652.00
2018-12-12T12:06:13.237Z,2416.00
2018-12-12T12:07:13.214Z,2356.00
2018-12-12T12:08:13.201Z,1996.00
2018-12-12T12:09:13.196Z,2100.00
2018-12-12T12:10:13.196Z,2460.00
2018-12-12T12:11:13.209Z,3008.00
2018-12-12T12:12:13.186Z,3440.00
2018-12-12T12:13:13.177Z,3776.00
2018-12-12T12:14:13.772Z,4808.00
2018-12-12T12:15:13.168Z,5528.00
2018-12-12T12:16:13.193Z,5852.00
2018-12-12T12:17:13.156Z,6184.00
2018-12-12T12:18:13.146Z,6304.00
2018-12-12T12:19:13.144Z,6500.00
2018-12-12T12:20:13.143Z,6628.00
2018-12-12T12:21:13.172Z,7180.00
2018-12-12T12:22:13.123Z,7288.00
2018-12-12T12:23:13.124Z,7488.00
2018-12-12T12:24:13.121Z,8016.00
2018-12-12T12:25:13.101Z,8092.00
2018-12-12T12:26:13.143Z,7920.00
2018-12-12T12:27:13.105Z,7832.00
2018-12-12T12:28:13.101Z,8060.00
2018-12-12T12:29:13.093Z,8708.00
2018-12-12T12:30:13.089Z,9356.00
2018-12-12T12:31:13.110Z,9584.00
2018-12-12T12:32:13.077Z,10000.00
2018-12-12T12:33:13.070Z,10668.00
2018-12-12T12:34:13.064Z,10856.00
2018-12-12T12:35:13.058Z,11432.00
2018-12-12T12:36:13.085Z,11224.00
2018-12-12T12:37:13.061Z,10168.00
2018-12-12T12:38:13.049Z,8916.00
2018-12-12T12:39:13.040Z,8156.00
2018-12-12T12:40:13.036Z,7596.00
2018-12-12T12:41:13.060Z,7408.00
2018-12-12T12:42:13.025Z,7052.00